sensor_id;sensor_type;location;lat;lon;timestamp;pressure;altitude;pressure_sealevel;temperature;humidity
72428;BME280;60419;48.880;18.036;2023-04-19T00:01:48;99187.88;;;11.58;51.22
72428;BME280;60419;48.880;18.036;2023-04-19T00:04:33;99180.41;;;11.64;51.26
72428;BME280;60419;48.880;18.036;2023-04-19T00:07:19;99185.84;;;11.41;51.57
72428;BME280;60419;48.880;18.036;2023-04-19T00:10:05;99171.84;;;11.62;51.33
72428;BME280;60419;48.880;18.036;2023-04-19T00:12:51;99173.91;;;11.42;52.11
72428;BME280;60419;48.880;18.036;2023-04-19T00:15:37;99173.38;;;11.32;52.13
72428;BME280;60419;48.880;18.036;2023-04-19T00:18:22;99141.84;;;11.81;50.39
72428;BME280;60419;48.880;18.036;2023-04-19T00:21:07;99167.78;;;11.82;50.74
72428;BME280;60419;48.880;18.036;2023-04-19T00:23:53;99162.78;;;11.98;50.21
72428;BME280;60419;48.880;18.036;2023-04-19T00:26:38;99163.63;;;12.07;50.53
72428;BME280;60419;48.880;18.036;2023-04-19T00:29:24;99158.28;;;12.90;48.47
72428;BME280;60419;48.880;18.036;2023-04-19T00:32:09;99157.78;;;12.97;48.38
72428;BME280;60419;48.880;18.036;2023-04-19T00:34:55;99151.06;;;11.80;51.73
72428;BME280;60419;48.880;18.036;2023-04-19T00:37:40;99148.41;;;11.88;51.94
72428;BME280;60419;48.880;18.036;2023-04-19T00:40:26;99133.91;;;11.84;52.34
72428;BME280;60419;48.880;18.036;2023-04-19T00:43:16;99137.94;;;11.64;53.23
72428;BME280;60419;48.880;18.036;2023-04-19T00:46:02;99132.03;;;11.94;51.64
72428;BME280;60419;48.880;18.036;2023-04-19T00:48:48;99138.00;;;11.73;52.93
72428;BME280;60419;48.880;18.036;2023-04-19T00:51:34;99130.81;;;11.77;53.32
72428;BME280;60419;48.880;18.036;2023-04-19T00:54:20;99135.63;;;11.49;54.32
72428;BME280;60419;48.880;18.036;2023-04-19T00:57:06;99137.72;;;11.30;55.50
72428;BME280;60419;48.880;18.036;2023-04-19T00:59:51;99127.97;;;11.51;56.63
72428;BME280;60419;48.880;18.036;2023-04-19T01:02:38;99130.69;;;11.51;56.54
72428;BME280;60419;48.880;18.036;2023-04-19T01:05:23;99120.47;;;11.70;57.52
72428;BME280;60419;48.880;18.036;2023-04-19T01:08:09;99110.28;;;11.67;58.13
72428;BME280;60419;48.880;18.036;2023-04-19T01:10:54;99118.16;;;11.55;59.75
72428;BME280;60419;48.880;18.036;2023-04-19T01:13:40;99101.00;;;11.60;60.27
72428;BME280;60419;48.880;18.036;2023-04-19T01:16:26;99079.25;;;11.42;60.58
72428;BME280;60419;48.880;18.036;2023-04-19T01:19:11;99102.22;;;11.54;61.73
72428;BME280;60419;48.880;18.036;2023-04-19T01:21:57;99104.88;;;11.45;62.30
72428;BME280;60419;48.880;18.036;2023-04-19T01:24:42;99098.09;;;11.56;62.53
72428;BME280;60419;48.880;18.036;2023-04-19T01:27:27;99098.78;;;11.31;63.18
72428;BME280;60419;48.880;18.036;2023-04-19T01:30:13;99105.97;;;10.63;66.46
72428;BME280;60419;48.880;18.036;2023-04-19T01:32:58;99083.28;;;10.64;66.01
72428;BME280;60419;48.880;18.036;2023-04-19T01:35:44;99099.19;;;11.01;65.68
72428;BME280;60419;48.880;18.036;2023-04-19T01:38:29;99088.69;;;10.64;67.25
72428;BME280;60419;48.880;18.036;2023-04-19T01:41:15;99071.94;;;10.89;66.01
72428;BME280;60419;48.880;18.036;2023-04-19T01:44:00;99083.03;;;10.88;67.39
72428;BME280;60419;48.880;18.036;2023-04-19T01:46:46;99083.41;;;10.95;66.74
72428;BME280;60419;48.880;18.036;2023-04-19T01:49:31;99080.38;;;10.96;67.41
72428;BME280;60419;48.880;18.036;2023-04-19T01:52:16;99078.28;;;10.57;68.54
72428;BME280;60419;48.880;18.036;2023-04-19T01:55:02;99066.97;;;10.69;67.83
72428;BME280;60419;48.880;18.036;2023-04-19T01:57:47;99075.91;;;10.55;69.33
72428;BME280;60419;48.880;18.036;2023-04-19T02:00:33;99066.06;;;10.37;70.17
72428;BME280;60419;48.880;18.036;2023-04-19T02:03:18;99068.13;;;10.76;68.74
72428;BME280;60419;48.880;18.036;2023-04-19T02:06:03;99069.09;;;10.80;68.01
72428;BME280;60419;48.880;18.036;2023-04-19T02:08:49;99072.41;;;10.55;69.00
72428;BME280;60419;48.880;18.036;2023-04-19T02:11:34;99073.94;;;10.83;67.67
72428;BME280;60419;48.880;18.036;2023-04-19T02:14:20;99067.31;;;10.90;67.69
72428;BME280;60419;48.880;18.036;2023-04-19T02:17:06;99064.28;;;11.36;65.43
72428;BME280;60419;48.880;18.036;2023-04-19T02:19:52;99061.97;;;11.92;63.99
72428;BME280;60419;48.880;18.036;2023-04-19T02:22:37;99058.31;;;11.88;63.49
72428;BME280;60419;48.880;18.036;2023-04-19T02:25:22;99056.34;;;11.80;63.61
72428;BME280;60419;48.880;18.036;2023-04-19T02:28:08;99059.47;;;12.04;62.91
72428;BME280;60419;48.880;18.036;2023-04-19T02:30:53;99058.31;;;12.45;61.46
72428;BME280;60419;48.880;18.036;2023-04-19T02:33:39;99052.00;;;12.19;62.15
72428;BME280;60419;48.880;18.036;2023-04-19T02:36:24;99047.78;;;12.87;60.23
72428;BME280;60419;48.880;18.036;2023-04-19T02:39:10;99046.16;;;13.04;59.32
72428;BME280;60419;48.880;18.036;2023-04-19T02:41:56;99040.59;;;12.83;59.76
72428;BME280;60419;48.880;18.036;2023-04-19T02:44:41;99046.03;;;12.83;60.03
72428;BME280;60419;48.880;18.036;2023-04-19T02:47:27;99042.16;;;13.18;58.91
72428;BME280;60419;48.880;18.036;2023-04-19T02:50:15;99040.41;;;12.96;59.50
72428;BME280;60419;48.880;18.036;2023-04-19T02:53:00;99035.81;;;12.88;59.92
72428;BME280;60419;48.880;18.036;2023-04-19T02:55:46;99034.69;;;12.98;59.56
72428;BME280;60419;48.880;18.036;2023-04-19T02:58:32;99037.69;;;12.27;61.51
72428;BME280;60419;48.880;18.036;2023-04-19T03:01:17;99031.22;;;12.71;60.19
72428;BME280;60419;48.880;18.036;2023-04-19T03:04:03;99024.16;;;12.79;60.13
72428;BME280;60419;48.880;18.036;2023-04-19T03:06:48;99028.88;;;12.04;62.30
72428;BME280;60419;48.880;18.036;2023-04-19T03:09:33;99024.34;;;11.82;63.37
72428;BME280;60419;48.880;18.036;2023-04-19T03:12:19;99023.28;;;12.00;62.74
72428;BME280;60419;48.880;18.036;2023-04-19T03:15:05;99014.16;;;11.70;63.49
72428;BME280;60419;48.880;18.036;2023-04-19T03:17:51;99008.53;;;11.66;64.01
72428;BME280;60419;48.880;18.036;2023-04-19T03:20:36;99008.91;;;11.02;65.97
72428;BME280;60419;48.880;18.036;2023-04-19T03:23:21;99002.00;;;10.96;66.59
72428;BME280;60419;48.880;18.036;2023-04-19T03:26:07;99001.22;;;10.96;66.41
72428;BME280;60419;48.880;18.036;2023-04-19T03:28:52;99007.41;;;10.74;66.89
72428;BME280;60419;48.880;18.036;2023-04-19T03:31:37;99003.16;;;11.04;66.29
72428;BME280;60419;48.880;18.036;2023-04-19T03:34:23;98996.75;;;11.22;65.09
72428;BME280;60419;48.880;18.036;2023-04-19T03:37:08;98985.84;;;10.82;66.23
72428;BME280;60419;48.880;18.036;2023-04-19T03:39:53;98998.44;;;10.65;67.02
72428;BME280;60419;48.880;18.036;2023-04-19T03:42:39;99001.59;;;11.34;64.80
72428;BME280;60419;48.880;18.036;2023-04-19T03:45:24;98987.22;;;11.65;63.69
72428;BME280;60419;48.880;18.036;2023-04-19T03:48:11;98995.94;;;12.19;62.12
72428;BME280;60419;48.880;18.036;2023-04-19T03:50:56;98985.16;;;12.45;61.27
72428;BME280;60419;48.880;18.036;2023-04-19T03:53:42;98985.47;;;12.52;60.81
72428;BME280;60419;48.880;18.036;2023-04-19T03:56:27;98987.78;;;12.02;62.56
72428;BME280;60419;48.880;18.036;2023-04-19T03:59:13;98978.75;;;12.50;61.51
72428;BME280;60419;48.880;18.036;2023-04-19T04:01:58;98984.34;;;12.79;61.15
72428;BME280;60419;48.880;18.036;2023-04-19T04:04:43;98984.00;;;12.81;61.54
72428;BME280;60419;48.880;18.036;2023-04-19T04:07:29;98985.13;;;12.80;62.10
72428;BME280;60419;48.880;18.036;2023-04-19T04:10:14;98972.94;;;13.04;60.86
72428;BME280;60419;48.880;18.036;2023-04-19T04:13:00;98963.25;;;11.98;62.91
72428;BME280;60419;48.880;18.036;2023-04-19T04:15:45;98977.31;;;12.70;62.28
72428;BME280;60419;48.880;18.036;2023-04-19T04:18:30;98972.06;;;12.47;62.17
72428;BME280;60419;48.880;18.036;2023-04-19T04:21:16;98977.50;;;12.30;62.58
72428;BME280;60419;48.880;18.036;2023-04-19T04:24:01;98978.69;;;11.80;64.28
72428;BME280;60419;48.880;18.036;2023-04-19T04:26:47;98977.75;;;12.02;63.97
72428;BME280;60419;48.880;18.036;2023-04-19T04:29:34;98972.50;;;11.88;64.45
72428;BME280;60419;48.880;18.036;2023-04-19T04:32:19;98968.66;;;11.32;66.51
72428;BME280;60419;48.880;18.036;2023-04-19T04:35:07;98970.53;;;11.23;66.84
72428;BME280;60419;48.880;18.036;2023-04-19T04:37:53;98975.41;;;10.67;68.13
72428;BME280;60419;48.880;18.036;2023-04-19T04:40:38;98970.50;;;10.47;69.21
72428;BME280;60419;48.880;18.036;2023-04-19T04:43:25;98965.50;;;10.63;69.41
72428;BME280;60419;48.880;18.036;2023-04-19T04:46:13;98960.50;;;10.47;69.63
72428;BME280;60419;48.880;18.036;2023-04-19T04:48:58;98958.03;;;10.59;70.00
72428;BME280;60419;48.880;18.036;2023-04-19T04:51:43;98963.75;;;11.03;68.50
72428;BME280;60419;48.880;18.036;2023-04-19T04:54:29;98959.38;;;11.24;67.74
72428;BME280;60419;48.880;18.036;2023-04-19T04:57:14;98955.19;;;11.50;66.90
72428;BME280;60419;48.880;18.036;2023-04-19T05:00:00;98950.22;;;12.09;65.44
72428;BME280;60419;48.880;18.036;2023-04-19T05:02:45;98940.03;;;12.14;65.06
72428;BME280;60419;48.880;18.036;2023-04-19T05:05:30;98951.00;;;11.92;65.67
72428;BME280;60419;48.880;18.036;2023-04-19T05:08:16;98954.19;;;11.37;67.35
72428;BME280;60419;48.880;18.036;2023-04-19T05:11:01;98950.16;;;11.65;67.04
72428;BME280;60419;48.880;18.036;2023-04-19T05:13:47;98946.00;;;10.88;68.94
72428;BME280;60419;48.880;18.036;2023-04-19T05:16:33;98954.28;;;10.24;71.94
72428;BME280;60419;48.880;18.036;2023-04-19T05:19:18;98939.25;;;10.77;73.18
72428;BME280;60419;48.880;18.036;2023-04-19T05:22:04;98944.59;;;10.46;71.40
72428;BME280;60419;48.880;18.036;2023-04-19T05:24:49;98935.28;;;10.83;74.33
72428;BME280;60419;48.880;18.036;2023-04-19T05:27:35;98937.72;;;10.62;70.56
72428;BME280;60419;48.880;18.036;2023-04-19T05:30:20;98941.31;;;10.12;72.96
72428;BME280;60419;48.880;18.036;2023-04-19T05:33:05;98897.34;;;10.34;71.65
72428;BME280;60419;48.880;18.036;2023-04-19T05:35:51;98942.81;;;10.64;71.16
72428;BME280;60419;48.880;18.036;2023-04-19T05:38:36;98949.34;;;11.16;69.80
72428;BME280;60419;48.880;18.036;2023-04-19T05:41:21;98943.81;;;11.30;68.21
72428;BME280;60419;48.880;18.036;2023-04-19T05:44:08;98945.38;;;11.22;68.88
72428;BME280;60419;48.880;18.036;2023-04-19T05:46:54;98941.94;;;10.99;68.95
72428;BME280;60419;48.880;18.036;2023-04-19T05:49:40;98932.69;;;11.32;67.72
72428;BME280;60419;48.880;18.036;2023-04-19T05:52:25;98949.34;;;11.25;68.15
72428;BME280;60419;48.880;18.036;2023-04-19T05:55:11;98932.16;;;11.12;67.54
72428;BME280;60419;48.880;18.036;2023-04-19T05:57:59;98944.34;;;11.41;66.75
72428;BME280;60419;48.880;18.036;2023-04-19T06:00:45;98941.75;;;11.27;66.98
72428;BME280;60419;48.880;18.036;2023-04-19T06:03:31;98928.34;;;11.22;66.81
72428;BME280;60419;48.880;18.036;2023-04-19T06:06:21;98931.13;;;11.31;66.56
72428;BME280;60419;48.880;18.036;2023-04-19T06:09:06;98927.28;;;11.32;66.59
72428;BME280;60419;48.880;18.036;2023-04-19T06:11:52;98929.72;;;11.42;65.88
72428;BME280;60419;48.880;18.036;2023-04-19T06:14:38;98927.63;;;11.39;66.31
72428;BME280;60419;48.880;18.036;2023-04-19T06:17:25;98929.31;;;11.75;65.72
72428;BME280;60419;48.880;18.036;2023-04-19T06:20:10;98923.91;;;11.92;64.51
72428;BME280;60419;48.880;18.036;2023-04-19T06:22:56;98935.69;;;11.30;65.56
72428;BME280;60419;48.880;18.036;2023-04-19T06:25:41;98923.50;;;11.41;66.57
72428;BME280;60419;48.880;18.036;2023-04-19T06:28:27;98928.06;;;11.23;67.37
72428;BME280;60419;48.880;18.036;2023-04-19T06:31:12;98925.94;;;11.69;65.37
72428;BME280;60419;48.880;18.036;2023-04-19T06:33:58;98921.81;;;11.54;65.95
72428;BME280;60419;48.880;18.036;2023-04-19T06:36:43;98912.72;;;11.59;65.42
72428;BME280;60419;48.880;18.036;2023-04-19T06:39:28;98906.81;;;11.48;65.56
72428;BME280;60419;48.880;18.036;2023-04-19T06:42:14;98909.56;;;11.65;64.99
72428;BME280;60419;48.880;18.036;2023-04-19T06:44:59;98907.38;;;12.37;63.08
72428;BME280;60419;48.880;18.036;2023-04-19T06:47:45;98901.97;;;12.28;62.84
72428;BME280;60419;48.880;18.036;2023-04-19T06:50:30;98898.31;;;12.50;62.48
72428;BME280;60419;48.880;18.036;2023-04-19T06:53:16;98910.78;;;11.51;65.41
72428;BME280;60419;48.880;18.036;2023-04-19T06:56:02;98893.56;;;11.38;65.07
72428;BME280;60419;48.880;18.036;2023-04-19T06:58:50;98892.53;;;11.74;64.64
72428;BME280;60419;48.880;18.036;2023-04-19T07:01:36;98891.19;;;11.36;64.34
72428;BME280;60419;48.880;18.036;2023-04-19T07:04:22;98893.84;;;11.19;65.39
72428;BME280;60419;48.880;18.036;2023-04-19T07:07:07;98895.50;;;10.97;65.86
72428;BME280;60419;48.880;18.036;2023-04-19T07:09:53;98886.47;;;11.02;64.92
72428;BME280;60419;48.880;18.036;2023-04-19T07:12:38;98893.34;;;10.86;66.02
72428;BME280;60419;48.880;18.036;2023-04-19T07:15:23;98896.47;;;11.01;65.55
72428;BME280;60419;48.880;18.036;2023-04-19T07:18:09;98892.66;;;10.71;66.09
72428;BME280;60419;48.880;18.036;2023-04-19T07:20:55;98897.31;;;10.57;65.94
72428;BME280;60419;48.880;18.036;2023-04-19T07:23:40;98901.72;;;10.22;66.51
72428;BME280;60419;48.880;18.036;2023-04-19T07:26:26;98912.00;;;10.20;65.19
72428;BME280;60419;48.880;18.036;2023-04-19T07:29:11;98910.34;;;10.32;64.18
72428;BME280;60419;48.880;18.036;2023-04-19T07:31:56;98895.25;;;10.31;64.38
72428;BME280;60419;48.880;18.036;2023-04-19T07:34:44;98886.06;;;10.32;64.61
72428;BME280;60419;48.880;18.036;2023-04-19T07:37:30;98895.69;;;10.25;62.71
72428;BME280;60419;48.880;18.036;2023-04-19T07:40:15;98891.13;;;10.34;62.23
72428;BME280;60419;48.880;18.036;2023-04-19T07:43:01;98902.69;;;10.48;60.94
72428;BME280;60419;48.880;18.036;2023-04-19T07:45:46;98882.78;;;10.67;60.44
72428;BME280;60419;48.880;18.036;2023-04-19T07:48:32;98908.09;;;10.79;60.07
72428;BME280;60419;48.880;18.036;2023-04-19T07:51:17;98897.34;;;10.34;59.93
72428;BME280;60419;48.880;18.036;2023-04-19T07:54:03;98897.66;;;10.55;58.54
72428;BME280;60419;48.880;18.036;2023-04-19T07:56:48;98903.69;;;10.52;58.47
72428;BME280;60419;48.880;18.036;2023-04-19T07:59:34;98855.50;;;10.23;58.29
72428;BME280;60419;48.880;18.036;2023-04-19T08:02:20;98876.53;;;10.57;58.60
72428;BME280;60419;48.880;18.036;2023-04-19T08:05:05;98896.09;;;10.63;58.76
72428;BME280;60419;48.880;18.036;2023-04-19T08:07:51;98878.94;;;10.68;57.78
72428;BME280;60419;48.880;18.036;2023-04-19T08:10:38;98898.72;;;10.99;57.35
72428;BME280;60419;48.880;18.036;2023-04-19T08:13:23;98887.28;;;10.80;57.21
72428;BME280;60419;48.880;18.036;2023-04-19T08:16:09;98904.06;;;10.91;57.01
72428;BME280;60419;48.880;18.036;2023-04-19T08:18:55;98899.84;;;10.76;57.79
72428;BME280;60419;48.880;18.036;2023-04-19T08:21:40;98913.38;;;10.85;56.76
72428;BME280;60419;48.880;18.036;2023-04-19T08:24:26;98920.28;;;10.46;57.51
72428;BME280;60419;48.880;18.036;2023-04-19T08:27:11;98909.16;;;10.02;58.49
72428;BME280;60419;48.880;18.036;2023-04-19T08:29:56;98920.91;;;9.84;59.66
72428;BME280;60419;48.880;18.036;2023-04-19T08:32:42;98922.63;;;9.80;60.19
72428;BME280;60419;48.880;18.036;2023-04-19T08:35:28;98925.31;;;9.80;60.05
72428;BME280;60419;48.880;18.036;2023-04-19T08:38:14;98915.44;;;10.11;60.25
72428;BME280;60419;48.880;18.036;2023-04-19T08:40:59;98826.81;;;9.68;59.96
72428;BME280;60419;48.880;18.036;2023-04-19T08:43:46;98910.81;;;10.79;58.50
72428;BME280;60419;48.880;18.036;2023-04-19T08:46:33;98906.44;;;10.16;59.25
72428;BME280;60419;48.880;18.036;2023-04-19T08:49:19;98878.69;;;10.24;58.78
72428;BME280;60419;48.880;18.036;2023-04-19T08:52:06;98889.69;;;10.50;58.14
72428;BME280;60419;48.880;18.036;2023-04-19T08:54:53;98899.94;;;11.33;56.70
72428;BME280;60419;48.880;18.036;2023-04-19T08:57:40;98907.25;;;11.33;55.57
72428;BME280;60419;48.880;18.036;2023-04-19T09:00:25;98903.78;;;11.41;55.49
72428;BME280;60419;48.880;18.036;2023-04-19T09:03:11;98900.75;;;11.51;55.34
72428;BME280;60419;48.880;18.036;2023-04-19T09:05:56;98903.88;;;11.18;55.25
72428;BME280;60419;48.880;18.036;2023-04-19T09:08:42;98909.84;;;11.07;56.86
72428;BME280;60419;48.880;18.036;2023-04-19T09:11:45;98906.25;;;10.57;58.54
72428;BME280;60419;48.880;18.036;2023-04-19T09:14:31;98893.00;;;11.58;55.96
72428;BME280;60419;48.880;18.036;2023-04-19T09:17:16;98886.44;;;11.33;55.54
72428;BME280;60419;48.880;18.036;2023-04-19T09:20:03;98913.16;;;10.95;56.21
72428;BME280;60419;48.880;18.036;2023-04-19T09:23:03;98905.03;;;11.43;54.89
72428;BME280;60419;48.880;18.036;2023-04-19T09:26:00;98901.75;;;11.55;54.72
72428;BME280;60419;48.880;18.036;2023-04-19T09:29:02;98904.59;;;11.41;55.30
72428;BME280;60419;48.880;18.036;2023-04-19T09:31:57;98889.03;;;11.64;55.27
72428;BME280;60419;48.880;18.036;2023-04-19T09:34:56;98894.69;;;10.66;57.52
72428;BME280;60419;48.880;18.036;2023-04-19T09:37:42;98895.88;;;11.62;55.23
72428;BME280;60419;48.880;18.036;2023-04-19T09:40:42;98901.28;;;11.04;55.98
72428;BME280;60419;48.880;18.036;2023-04-19T09:43:28;98895.19;;;11.47;55.13
72428;BME280;60419;48.880;18.036;2023-04-19T09:49:17;98897.81;;;11.13;55.34
72428;BME280;60419;48.880;18.036;2023-04-19T09:52:04;98904.78;;;11.05;56.11
72428;BME280;60419;48.880;18.036;2023-04-19T09:54:50;98899.03;;;10.75;55.71
72428;BME280;60419;48.880;18.036;2023-04-19T09:57:37;98906.28;;;10.66;56.61
72428;BME280;60419;48.880;18.036;2023-04-19T10:00:23;98901.69;;;10.67;56.54
72428;BME280;60419;48.880;18.036;2023-04-19T10:03:09;98902.72;;;10.57;57.76
72428;BME280;60419;48.880;18.036;2023-04-19T10:05:56;98907.63;;;10.77;57.13
72428;BME280;60419;48.880;18.036;2023-04-19T10:08:42;98915.22;;;10.98;56.70
72428;BME280;60419;48.880;18.036;2023-04-19T10:11:34;98884.16;;;10.33;58.42
72428;BME280;60419;48.880;18.036;2023-04-19T10:14:24;98909.53;;;10.54;57.09
72428;BME280;60419;48.880;18.036;2023-04-19T10:17:10;98908.31;;;10.60;57.40
72428;BME280;60419;48.880;18.036;2023-04-19T10:20:00;98908.19;;;10.66;57.19
72428;BME280;60419;48.880;18.036;2023-04-19T10:22:50;98912.88;;;10.51;59.08
72428;BME280;60419;48.880;18.036;2023-04-19T10:25:37;98899.59;;;10.41;59.40
72428;BME280;60419;48.880;18.036;2023-04-19T10:28:22;98913.25;;;11.21;58.79
72428;BME280;60419;48.880;18.036;2023-04-19T10:31:11;98909.88;;;10.84;59.92
72428;BME280;60419;48.880;18.036;2023-04-19T10:34:00;98910.16;;;10.74;61.03
72428;BME280;60419;48.880;18.036;2023-04-19T10:36:45;98900.09;;;10.66;60.51
72428;BME280;60419;48.880;18.036;2023-04-19T10:39:41;98910.31;;;11.00;59.75
72428;BME280;60419;48.880;18.036;2023-04-19T10:45:50;98913.38;;;10.85;59.32
72428;BME280;60419;48.880;18.036;2023-04-19T10:48:39;98919.44;;;10.59;59.79
72428;BME280;60419;48.880;18.036;2023-04-19T10:51:32;98907.41;;;10.96;59.47
72428;BME280;60419;48.880;18.036;2023-04-19T10:54:27;98902.41;;;10.81;59.42
72428;BME280;60419;48.880;18.036;2023-04-19T10:57:15;98905.94;;;11.21;58.88
72428;BME280;60419;48.880;18.036;2023-04-19T11:00:22;98910.00;;;11.59;57.30
72428;BME280;60419;48.880;18.036;2023-04-19T11:06:29;98891.91;;;11.77;57.26
72428;BME280;60419;48.880;18.036;2023-04-19T11:09:25;98891.72;;;11.56;57.63
72428;BME280;60419;48.880;18.036;2023-04-19T11:12:20;98894.84;;;11.32;57.92
72428;BME280;60419;48.880;18.036;2023-04-19T11:15:06;98863.75;;;11.03;57.86
72428;BME280;60419;48.880;18.036;2023-04-19T11:17:53;98905.09;;;11.52;57.32
72428;BME280;60419;48.880;18.036;2023-04-19T11:20:41;98908.06;;;11.33;58.10
72428;BME280;60419;48.880;18.036;2023-04-19T11:23:27;98900.78;;;11.02;58.58
72428;BME280;60419;48.880;18.036;2023-04-19T11:26:12;98900.41;;;10.42;60.23
72428;BME280;60419;48.880;18.036;2023-04-19T11:28:57;98896.53;;;10.56;60.13
72428;BME280;60419;48.880;18.036;2023-04-19T11:31:44;98896.25;;;10.35;60.89
72428;BME280;60419;48.880;18.036;2023-04-19T11:34:36;98880.41;;;9.98;61.04
72428;BME280;60419;48.880;18.036;2023-04-19T11:37:22;98901.63;;;10.13;61.80
72428;BME280;60419;48.880;18.036;2023-04-19T11:40:08;98902.84;;;10.07;61.59
72428;BME280;60419;48.880;18.036;2023-04-19T11:42:58;98918.47;;;9.96;61.73
72428;BME280;60419;48.880;18.036;2023-04-19T11:45:47;98919.03;;;9.70;61.79
72428;BME280;60419;48.880;18.036;2023-04-19T11:48:32;98907.94;;;9.58;62.97
72428;BME280;60419;48.880;18.036;2023-04-19T11:51:18;98911.63;;;9.76;62.66
72428;BME280;60419;48.880;18.036;2023-04-19T11:54:11;98915.34;;;9.66;62.67
72428;BME280;60419;48.880;18.036;2023-04-19T11:57:05;98904.03;;;9.78;62.46
72428;BME280;60419;48.880;18.036;2023-04-19T12:00:05;98900.78;;;10.04;61.51
72428;BME280;60419;48.880;18.036;2023-04-19T12:02:52;98901.50;;;10.41;60.54
72428;BME280;60419;48.880;18.036;2023-04-19T12:05:38;98901.47;;;10.32;59.96
72428;BME280;60419;48.880;18.036;2023-04-19T12:08:34;98901.50;;;10.63;59.51
72428;BME280;60419;48.880;18.036;2023-04-19T12:11:22;98898.06;;;10.49;59.23
72428;BME280;60419;48.880;18.036;2023-04-19T12:14:08;98891.44;;;10.10;60.83
72428;BME280;60419;48.880;18.036;2023-04-19T12:17:05;98898.16;;;10.35;60.11
72428;BME280;60419;48.880;18.036;2023-04-19T12:19:50;98904.41;;;10.22;60.73
72428;BME280;60419;48.880;18.036;2023-04-19T12:22:36;98895.75;;;10.33;60.61
72428;BME280;60419;48.880;18.036;2023-04-19T12:25:21;98906.91;;;10.41;59.99
72428;BME280;60419;48.880;18.036;2023-04-19T12:28:06;98896.72;;;10.15;60.70
72428;BME280;60419;48.880;18.036;2023-04-19T12:30:52;98909.56;;;9.59;61.64
72428;BME280;60419;48.880;18.036;2023-04-19T12:33:37;98882.28;;;9.97;61.24
72428;BME280;60419;48.880;18.036;2023-04-19T12:36:23;98893.47;;;10.04;61.11
72428;BME280;60419;48.880;18.036;2023-04-19T12:39:08;98876.16;;;10.05;60.48
72428;BME280;60419;48.880;18.036;2023-04-19T12:41:54;98860.16;;;10.09;60.51
72428;BME280;60419;48.880;18.036;2023-04-19T12:44:40;98881.41;;;10.24;60.44
72428;BME280;60419;48.880;18.036;2023-04-19T12:47:25;98867.50;;;9.94;60.84
72428;BME280;60419;48.880;18.036;2023-04-19T12:50:11;98862.25;;;10.12;60.36
72428;BME280;60419;48.880;18.036;2023-04-19T12:52:57;98854.69;;;9.78;61.46
72428;BME280;60419;48.880;18.036;2023-04-19T12:55:43;98855.81;;;9.99;60.21
72428;BME280;60419;48.880;18.036;2023-04-19T12:58:31;98867.50;;;9.94;60.69
72428;BME280;60419;48.880;18.036;2023-04-19T13:01:17;98857.66;;;10.35;59.62
72428;BME280;60419;48.880;18.036;2023-04-19T13:04:02;98854.06;;;9.81;61.35
72428;BME280;60419;48.880;18.036;2023-04-19T13:06:48;98813.22;;;9.51;60.11
72428;BME280;60419;48.880;18.036;2023-04-19T13:09:33;98854.31;;;10.38;59.12
72428;BME280;60419;48.880;18.036;2023-04-19T13:12:19;98847.75;;;10.08;59.50
72428;BME280;60419;48.880;18.036;2023-04-19T13:15:04;98849.63;;;9.99;60.08
72428;BME280;60419;48.880;18.036;2023-04-19T13:17:50;98845.91;;;9.94;59.92
72428;BME280;60419;48.880;18.036;2023-04-19T13:20:36;98845.88;;;9.86;59.72
72428;BME280;60419;48.880;18.036;2023-04-19T13:23:21;98841.63;;;10.38;58.24
72428;BME280;60419;48.880;18.036;2023-04-19T13:26:07;98850.63;;;10.34;58.81
72428;BME280;60419;48.880;18.036;2023-04-19T13:28:52;98841.19;;;10.45;57.78
72428;BME280;60419;48.880;18.036;2023-04-19T13:31:38;98871.66;;;10.37;57.77
72428;BME280;60419;48.880;18.036;2023-04-19T13:34:23;98858.56;;;10.84;57.45
72428;BME280;60419;48.880;18.036;2023-04-19T13:37:09;98867.16;;;10.55;57.84
72428;BME280;60419;48.880;18.036;2023-04-19T13:39:54;98862.44;;;10.69;57.72
72428;BME280;60419;48.880;18.036;2023-04-19T13:42:39;98863.84;;;10.35;57.83
72428;BME280;60419;48.880;18.036;2023-04-19T13:45:25;98870.84;;;10.14;58.77
72428;BME280;60419;48.880;18.036;2023-04-19T13:48:10;98872.81;;;10.22;59.26
72428;BME280;60419;48.880;18.036;2023-04-19T13:50:57;98877.59;;;10.03;59.47
72428;BME280;60419;48.880;18.036;2023-04-19T13:53:43;98875.50;;;10.22;59.07
72428;BME280;60419;48.880;18.036;2023-04-19T13:56:28;98877.41;;;10.22;59.11
72428;BME280;60419;48.880;18.036;2023-04-19T13:59:14;98874.06;;;10.02;59.81
72428;BME280;60419;48.880;18.036;2023-04-19T14:02:02;98879.19;;;9.67;60.23
72428;BME280;60419;48.880;18.036;2023-04-19T14:04:47;98878.56;;;9.70;60.15
72428;BME280;60419;48.880;18.036;2023-04-19T14:07:32;98871.94;;;9.77;60.19
72428;BME280;60419;48.880;18.036;2023-04-19T14:10:18;98877.59;;;9.66;59.82
72428;BME280;60419;48.880;18.036;2023-04-19T14:13:03;98874.31;;;9.56;60.49
72428;BME280;60419;48.880;18.036;2023-04-19T14:15:49;98892.69;;;9.26;61.46
72428;BME280;60419;48.880;18.036;2023-04-19T14:18:35;98877.63;;;9.25;61.53
72428;BME280;60419;48.880;18.036;2023-04-19T14:21:20;98887.03;;;9.27;61.55
72428;BME280;60419;48.880;18.036;2023-04-19T14:24:05;98888.88;;;9.13;61.59
72428;BME280;60419;48.880;18.036;2023-04-19T14:26:51;98881.09;;;9.25;65.51
72428;BME280;60419;48.880;18.036;2023-04-19T14:29:37;98885.09;;;9.69;59.43
72428;BME280;60419;48.880;18.036;2023-04-19T14:32:23;98887.75;;;9.83;59.97
72428;BME280;60419;48.880;18.036;2023-04-19T14:35:09;98889.91;;;9.17;61.02
72428;BME280;60419;48.880;18.036;2023-04-19T14:37:57;98894.06;;;8.82;62.37
72428;BME280;60419;48.880;18.036;2023-04-19T14:40:42;98899.06;;;8.89;61.92